Leni P. — A8XW5 — position and weather

sailwx.info

Track history (hours):
 
Tides and Currents Weather Stations Pressure Air Temp Water Temp Dewpoint Dewpoint Depression Visibility Wind Speed Wind Dir Waves Ship Positions

Leni P.

Last reported at 2014-Aug-13 12:06 UTC. Time now 2014-Aug-23 13:30 UTC.
Position N 49°43' W 000°29'.
Warning: this ship's position is 10 days out of date.

Length 274 m; draft 8.9 m.

Type: Ship (hazmat cat A). MMSI: 636014986.

Date/timePositionNaut miles runAvg speedWind from/ knotsBaromVisibWave heightAir tempDewpointWater temp
2014-Aug-13 12:06N 49°43' W 000°29'610.4
2014-Aug-13 11:31N 49°39' W 000°22'5 4.6
2014-Aug-13 10:31N 49°36' W 000°17'0 0.0
2014-Aug-13 09:31N 49°36' W 000°17'0 0.0
2014-Aug-13 08:31N 49°36' W 000°17'0 0.0
2014-Aug-13 07:28N 49°36' W 000°17'0 0.1
2014-Aug-13 06:31N 49°36' W 000°17'0 0.2
2014-Aug-13 05:31N 49°36' W 000°17'0 0.0
2014-Aug-13 04:31N 49°36' W 000°18'0 0.0
2014-Aug-13 03:31N 49°36' W 000°18'0 0.0
2014-Aug-13 02:31N 49°36' W 000°18'0 0.3
2014-Aug-13 01:31N 49°36' W 000°17'0 0.0
2014-Aug-13 00:31N 49°36' W 000°17'0 0.0
2014-Aug-12 23:31N 49°36' W 000°17'0 0.0
2014-Aug-12 22:31N 49°36' W 000°17'0 0.0
2014-Aug-12 21:31N 49°36' W 000°17'0 0.0
2014-Aug-12 20:31N 49°36' W 000°17'0 0.1
2014-Aug-12 19:31N 49°36' W 000°17'0 0.1
2014-Aug-12 18:31N 49°36' W 000°17'0 0.2
2014-Aug-12 17:31N 49°36' W 000°18'0 0.0
2014-Aug-12 16:31N 49°36' W 000°18'0 0.0
2014-Aug-12 15:31N 49°36' W 000°18'0 0.1
2014-Aug-12 14:31N 49°36' W 000°17'0 0.2
2014-Aug-12 13:28N 49°36' W 000°17'0 0.1
2014-Aug-12 12:31N 49°36' W 000°17'0 0.0
2014-Aug-12 11:31N 49°36' W 000°17'0 0.0
2014-Aug-12 10:31N 49°36' W 000°17'0 0.0
2014-Aug-12 09:31N 49°36' W 000°17'0 0.0
2014-Aug-12 08:31N 49°36' W 000°17'0 0.1
2014-Aug-12 07:31N 49°36' W 000°17'0 0.0
2014-Aug-12 06:31N 49°36' W 000°17'0 0.2
2014-Aug-12 05:31N 49°36' W 000°17'0 0.1
2014-Aug-12 04:31N 49°36' W 000°17'0 0.0
2014-Aug-12 03:31N 49°36' W 000°18'0 0.0
2014-Aug-12 02:31N 49°36' W 000°17'0 0.2
2014-Aug-12 01:31N 49°36' W 000°17'0 0.1
2014-Aug-12 00:31N 49°36' W 000°17'0 0.1
2014-Aug-11 23:31N 49°36' W 000°17'0 0.0
2014-Aug-11 22:31N 49°36' W 000°17'0 0.0
2014-Aug-11 21:31N 49°36' W 000°17'0 0.0
2014-Aug-11 20:31N 49°36' W 000°17'0 0.0
2014-Aug-11 19:31N 49°36' W 000°17'0 0.0
2014-Aug-11 18:31N 49°36' W 000°17'0 0.0
2014-Aug-11 17:31N 49°36' W 000°17'0 0.2
2014-Aug-11 16:31N 49°36' W 000°17'0 0.1
2014-Aug-11 15:31N 49°36' W 000°17'0 0.0
2014-Aug-11 14:31N 49°36' W 000°17'0 0.1
2014-Aug-11 13:31N 49°36' W 000°17'0 0.1
2014-Aug-11 12:31N 49°36' W 000°17'0 0.1
2014-Aug-11 11:31N 49°36' W 000°17'0 0.0
2014-Aug-11 10:31N 49°36' W 000°17'0 0.1
2014-Aug-11 09:31N 49°36' W 000°17'0 0.0
2014-Aug-11 08:31N 49°36' W 000°17'0 0.0
2014-Aug-11 07:31N 49°36' W 000°17'0 0.0
2014-Aug-11 06:31N 49°36' W 000°17'0 0.0
2014-Aug-11 05:31N 49°36' W 000°17'0 0.2
2014-Aug-11 04:31N 49°36' W 000°17'0 0.1
2014-Aug-11 03:31N 49°36' W 000°17'0 0.1
2014-Aug-11 02:31N 49°36' W 000°17'0 0.1
2014-Aug-11 01:31N 49°36' W 000°17'0 0.1
2014-Aug-11 00:31N 49°36' W 000°17'0 0.0
2014-Aug-10 23:31N 49°36' W 000°17'0 0.0
2014-Aug-10 22:31N 49°36' W 000°17'0 0.1
2014-Aug-10 21:31N 49°36' W 000°17'0 0.1
2014-Aug-10 20:31N 49°36' W 000°17'0 0.0
2014-Aug-10 19:31N 49°36' W 000°17'0 0.0
2014-Aug-10 18:31N 49°36' W 000°17'0 0.0
2014-Aug-10 17:31N 49°36' W 000°17'0 0.0
2014-Aug-10 16:31N 49°36' W 000°17'0 0.1
2014-Aug-10 15:31N 49°36' W 000°17'0 0.1
2014-Aug-10 14:31N 49°36' W 000°17'0 0.0
2014-Aug-10 13:31N 49°36' W 000°17'0 0.0
2014-Aug-10 12:31N 49°36' W 000°17'0 0.0
2014-Aug-10 11:31N 49°36' W 000°17'0 0.2
2014-Aug-10 10:34N 49°36' W 000°17'5 5.1
2014-Aug-10 09:34N 49°33' W 000°11'1211.8
2014-Aug-10 08:33N 49°29' E 000°06'1 1.4
2014-Aug-10 07:32N 49°28' E 000°08'0 0.0
2014-Aug-10 06:32N 49°28' E 000°08'0 0.0
2014-Aug-10 05:29N 49°28' E 000°08'0 0.0
2014-Aug-10 04:32N 49°28' E 000°08'0 0.0
2014-Aug-10 03:32N 49°28' E 000°08'0 0.0
2014-Aug-10 02:29N 49°28' E 000°08'0 0.0
2014-Aug-10 01:29N 49°28' E 000°08'0 0.0
2014-Aug-10 00:29N 49°28' E 000°08'0 0.0
2014-Aug-09 23:32N 49°28' E 000°08'0 0.0
2014-Aug-09 22:29N 49°28' E 000°08'0 0.0
2014-Aug-09 21:29N 49°28' E 000°08'0 0.0
2014-Aug-09 20:32N 49°28' E 000°08'0 0.0
2014-Aug-09 19:29N 49°28' E 000°08'0 0.0
2014-Aug-09 18:29N 49°28' E 000°08'0 0.0
2014-Aug-09 17:32N 49°28' E 000°08'0 0.0
2014-Aug-09 16:29N 49°28' E 000°08'0 0.0
2014-Aug-09 15:29N 49°28' E 000°08'0 0.0
2014-Aug-09 14:32N 49°28' E 000°08'0 0.0
2014-Aug-09 13:23N 49°28' E 000°08'0 0.0
2014-Aug-09 12:32N 49°28' E 000°08'0 0.0
2014-Aug-09 11:29N 49°28' E 000°08'0 0.0
2014-Aug-09 10:29N 49°28' E 000°08'0 0.0
2014-Aug-09 09:29N 49°28' E 000°08'0 0.0
2014-Aug-09 08:29N 49°28' E 000°08'0 0.0
2014-Aug-09 07:32N 49°28' E 000°08'0 0.0
2014-Aug-09 06:32N 49°28' E 000°08'0 0.0
2014-Aug-09 05:29N 49°28' E 000°08'0 0.0
2014-Aug-09 04:32N 49°28' E 000°08'0 0.0
2014-Aug-09 03:29N 49°28' E 000°08'0 0.0
2014-Aug-09 02:32N 49°28' E 000°08'0 0.0
2014-Aug-09 01:32N 49°28' E 000°08'0 0.0
2014-Aug-09 00:32N 49°28' E 000°08'0 0.0
2014-Aug-08 23:29N 49°28' E 000°08'0 0.0
2014-Aug-08 22:29N 49°28' E 000°08'0 0.0
2014-Aug-08 21:29N 49°28' E 000°08'0 0.0
2014-Aug-08 20:32N 49°28' E 000°08'0 0.0
2014-Aug-08 19:32N 49°28' E 000°08'0 0.0
2014-Aug-08 18:33N 49°28' E 000°08'5 4.8
2014-Aug-08 17:33N 49°30' E 000°01'8 7.9
2014-Aug-08 16:33N 49°32' W 000°10'4 3.6
2014-Aug-08 15:33N 49°33' W 000°16'6 6.2
2014-Aug-08 14:34N 49°37' W 000°24'1110.9
2014-Aug-08 13:33N 49°47' W 000°30'3811.6
2014-Aug-08 10:17N 50°24' W 000°17'1112.1
2014-Aug-08 09:23N 50°29' W 000°01'1011.8
2014-Aug-08 08:30N 50°31' E 000°14'1111.1
2014-Aug-08 07:33N 50°34' E 000°30'1110.9
2014-Aug-08 06:33N 50°40' E 000°45'1111.4
2014-Aug-08 05:33N 50°47' E 000°60'1312.8
2014-Aug-08 04:33N 50°54' E 001°17'1414.3
2014-Aug-08 03:33N 51°04' E 001°32'1413.6
2014-Aug-08 02:34N 51°15' E 001°46'1212.1
2014-Aug-08 01:34N 51°25' E 001°55'1111.1
2014-Aug-08 00:34N 51°33' E 002°07'1110.8
2014-Aug-07 23:33N 51°42' E 002°18'1010.4
2014-Aug-07 22:33N 51°50' E 002°29'1010.2
2014-Aug-07 21:33N 51°57' E 002°41'1111.0
2014-Aug-07 20:33N 52°04' E 002°55'1211.7
2014-Aug-07 19:33N 52°03' E 003°14'1212.2
2014-Aug-07 18:33N 52°03' E 003°34'1212.1
2014-Aug-07 17:33N 52°03' E 003°53'1110.7
2014-Aug-07 16:33N 51°57' E 004°09'1 1.0
2014-Aug-07 15:32N 51°57' E 004°10'0 0.0
2014-Aug-07 14:32N 51°57' E 004°10'0 0.0
2014-Aug-07 13:32N 51°57' E 004°10'0 0.0
2014-Aug-07 12:32N 51°57' E 004°10'0 0.0
2014-Aug-07 11:32N 51°57' E 004°10'0 0.0
2014-Aug-07 10:29N 51°57' E 004°10'0 0.0
2014-Aug-07 09:29N 51°57' E 004°10'0 0.0
2014-Aug-07 08:32N 51°57' E 004°10'0 0.0
2014-Aug-07 07:23N 51°57' E 004°10'0 0.0
2014-Aug-07 06:32N 51°57' E 004°10'0 0.0
2014-Aug-07 05:32N 51°57' E 004°10'0 0.0
2014-Aug-07 04:26N 51°57' E 004°10'0 0.0
2014-Aug-07 03:29N 51°57' E 004°10'0 0.0
2014-Aug-07 02:32N 51°57' E 004°10'0 0.0
2014-Aug-07 01:32N 51°57' E 004°10'0 0.0
2014-Aug-07 00:32N 51°57' E 004°10'0 0.0
2014-Aug-06 23:29N 51°57' E 004°10'0 0.0
2014-Aug-06 22:32N 51°57' E 004°10'0 0.0
2014-Aug-06 21:32N 51°57' E 004°10'0 0.1
2014-Aug-06 20:33N 51°57' E 004°10'6 6.2
2014-Aug-06 19:33N 51°60' E 004°01'1010.3
2014-Aug-06 18:33N 52°01' E 003°44'22 1.4
2014-Aug-06 03:10N 52°00' E 003°09'0 0.1
2014-Aug-06 01:19N 52°00' E 003°09'0 0.1
2014-Aug-06 00:13N 52°00' E 003°09'0 0.1
2014-Aug-05 23:28N 52°00' E 003°09'0 0.0
2014-Aug-05 22:28N 52°00' E 003°09'0 0.0
2014-Aug-05 21:31N 52°00' E 003°09'0 0.0
2014-Aug-05 20:25N 52°00' E 003°09'0 0.0
2014-Aug-05 19:31N 52°00' E 003°09'0 0.1
2014-Aug-05 17:19N 52°00' E 003°09'0 0.0
2014-Aug-05 16:31N 52°00' E 003°09'0 0.0
2014-Aug-05 15:31N 52°00' E 003°09'0 0.0
2014-Aug-05 14:28N 52°00' E 003°09'0 0.0
2014-Aug-05 13:16N 52°00' E 003°09'0 0.2
2014-Aug-05 12:22N 52°00' E 003°09'0 0.1
2014-Aug-05 11:16N 52°00' E 003°09'0 0.0
2014-Aug-05 10:28N 52°00' E 003°09'0 0.0
2014-Aug-05 09:31N 52°00' E 003°09'0 0.0
2014-Aug-05 08:25N 52°00' E 003°09'0 0.0
2014-Aug-05 07:31N 52°00' E 003°09'0 0.1
2014-Aug-05 05:10N 52°00' E 003°09'0 0.2
2014-Aug-05 04:10N 52°00' E 003°09'0 0.0
2014-Aug-05 03:22N 52°00' E 003°09'0 0.0
2014-Aug-05 02:22N 52°00' E 003°09'0 0.0
2014-Aug-05 00:28N 52°00' E 003°09'0 0.2
2014-Aug-04 23:31N 52°00' E 003°09'0 0.1
2014-Aug-04 22:31N 52°00' E 003°09'0 0.0
2014-Aug-04 21:31N 52°00' E 003°09'0 0.0
2014-Aug-04 20:31N 52°00' E 003°09'0 0.0
2014-Aug-04 19:31N 52°00' E 003°09'0 0.0
2014-Aug-04 18:31N 52°00' E 003°09'0 0.0
2014-Aug-04 17:28N 52°00' E 003°09'0 0.1
2014-Aug-04 15:28N 52°00' E 003°09'0 0.0
2014-Aug-04 04:19N 52°00' E 003°09'0 0.2
2014-Aug-04 03:31N 52°00' E 003°09'0 0.1
2014-Aug-04 02:04N 52°00' E 003°09'0 0.0
2014-Aug-04 01:31N 52°00' E 003°09'0 0.1
2014-Aug-04 00:10N 52°00' E 003°09'0 0.3
2014-Aug-03 23:25N 52°00' E 003°09'0 0.1
2014-Aug-03 22:31N 52°00' E 003°09'0 0.0
2014-Aug-03 21:31N 52°00' E 003°09'0 0.0
2014-Aug-03 20:31N 52°00' E 003°09'0 0.0
2014-Aug-03 19:31N 52°00' E 003°09'0 0.0
2014-Aug-03 18:31N 52°00' E 003°09'0 0.0
2014-Aug-03 17:31N 52°00' E 003°09'  
Track history (hours):
 
Tides and Currents Weather Stations Pressure Air Temp Water Temp Dewpoint Dewpoint Depression Visibility Wind Speed Wind Dir Waves Ship Positions

Leni P.

Last reported at 2014-Aug-13 12:06 UTC. Time now 2014-Aug-23 13:30 UTC.
Position N 49°43' W 000°29'.
Warning: this ship's position is 10 days out of date.

Length 274 m; draft 8.9 m.

Type: Ship (hazmat cat A). MMSI: 636014986.

Date/timePositionNaut miles runAvg speedWind from/ knotsBaromVisibWave heightAir tempDewpointWater temp
2014-Aug-13 12:06N 49°43' W 000°29'610.4
2014-Aug-13 11:31N 49°39' W 000°22'5 4.6
2014-Aug-13 10:31N 49°36' W 000°17'0 0.0
2014-Aug-13 09:31N 49°36' W 000°17'0 0.0
2014-Aug-13 08:31N 49°36' W 000°17'0 0.0
2014-Aug-13 07:28N 49°36' W 000°17'0 0.1
2014-Aug-13 06:31N 49°36' W 000°17'0 0.2
2014-Aug-13 05:31N 49°36' W 000°17'0 0.0
2014-Aug-13 04:31N 49°36' W 000°18'0 0.0
2014-Aug-13 03:31N 49°36' W 000°18'0 0.0
2014-Aug-13 02:31N 49°36' W 000°18'0 0.3
2014-Aug-13 01:31N 49°36' W 000°17'0 0.0
2014-Aug-13 00:31N 49°36' W 000°17'0 0.0
2014-Aug-12 23:31N 49°36' W 000°17'0 0.0
2014-Aug-12 22:31N 49°36' W 000°17'0 0.0
2014-Aug-12 21:31N 49°36' W 000°17'0 0.0
2014-Aug-12 20:31N 49°36' W 000°17'0 0.1
2014-Aug-12 19:31N 49°36' W 000°17'0 0.1
2014-Aug-12 18:31N 49°36' W 000°17'0 0.2
2014-Aug-12 17:31N 49°36' W 000°18'0 0.0
2014-Aug-12 16:31N 49°36' W 000°18'0 0.0
2014-Aug-12 15:31N 49°36' W 000°18'0 0.1
2014-Aug-12 14:31N 49°36' W 000°17'0 0.2
2014-Aug-12 13:28N 49°36' W 000°17'0 0.1
2014-Aug-12 12:31N 49°36' W 000°17'0 0.0
2014-Aug-12 11:31N 49°36' W 000°17'0 0.0
2014-Aug-12 10:31N 49°36' W 000°17'0 0.0
2014-Aug-12 09:31N 49°36' W 000°17'0 0.0
2014-Aug-12 08:31N 49°36' W 000°17'0 0.1
2014-Aug-12 07:31N 49°36' W 000°17'0 0.0
2014-Aug-12 06:31N 49°36' W 000°17'0 0.2
2014-Aug-12 05:31N 49°36' W 000°17'0 0.1
2014-Aug-12 04:31N 49°36' W 000°17'0 0.0
2014-Aug-12 03:31N 49°36' W 000°18'0 0.0
2014-Aug-12 02:31N 49°36' W 000°17'0 0.2
2014-Aug-12 01:31N 49°36' W 000°17'0 0.1
2014-Aug-12 00:31N 49°36' W 000°17'0 0.1
2014-Aug-11 23:31N 49°36' W 000°17'0 0.0
2014-Aug-11 22:31N 49°36' W 000°17'0 0.0
2014-Aug-11 21:31N 49°36' W 000°17'0 0.0
2014-Aug-11 20:31N 49°36' W 000°17'0 0.0
2014-Aug-11 19:31N 49°36' W 000°17'0 0.0
2014-Aug-11 18:31N 49°36' W 000°17'0 0.0
2014-Aug-11 17:31N 49°36' W 000°17'0 0.2
2014-Aug-11 16:31N 49°36' W 000°17'0 0.1
2014-Aug-11 15:31N 49°36' W 000°17'0 0.0
2014-Aug-11 14:31N 49°36' W 000°17'0 0.1
2014-Aug-11 13:31N 49°36' W 000°17'0 0.1
2014-Aug-11 12:31N 49°36' W 000°17'0 0.1
2014-Aug-11 11:31N 49°36' W 000°17'0 0.0
2014-Aug-11 10:31N 49°36' W 000°17'0 0.1
2014-Aug-11 09:31N 49°36' W 000°17'0 0.0
2014-Aug-11 08:31N 49°36' W 000°17'0 0.0
2014-Aug-11 07:31N 49°36' W 000°17'0 0.0
2014-Aug-11 06:31N 49°36' W 000°17'0 0.0
2014-Aug-11 05:31N 49°36' W 000°17'0 0.2
2014-Aug-11 04:31N 49°36' W 000°17'0 0.1
2014-Aug-11 03:31N 49°36' W 000°17'0 0.1
2014-Aug-11 02:31N 49°36' W 000°17'0 0.1
2014-Aug-11 01:31N 49°36' W 000°17'0 0.1
2014-Aug-11 00:31N 49°36' W 000°17'0 0.0
2014-Aug-10 23:31N 49°36' W 000°17'0 0.0
2014-Aug-10 22:31N 49°36' W 000°17'0 0.1
2014-Aug-10 21:31N 49°36' W 000°17'0 0.1
2014-Aug-10 20:31N 49°36' W 000°17'0 0.0
2014-Aug-10 19:31N 49°36' W 000°17'0 0.0
2014-Aug-10 18:31N 49°36' W 000°17'0 0.0
2014-Aug-10 17:31N 49°36' W 000°17'0 0.0
2014-Aug-10 16:31N 49°36' W 000°17'0 0.1
2014-Aug-10 15:31N 49°36' W 000°17'0 0.1
2014-Aug-10 14:31N 49°36' W 000°17'0 0.0
2014-Aug-10 13:31N 49°36' W 000°17'0 0.0
2014-Aug-10 12:31N 49°36' W 000°17'0 0.0
2014-Aug-10 11:31N 49°36' W 000°17'0 0.2
2014-Aug-10 10:34N 49°36' W 000°17'5 5.1
2014-Aug-10 09:34N 49°33' W 000°11'1211.8
2014-Aug-10 08:33N 49°29' E 000°06'1 1.4
2014-Aug-10 07:32N 49°28' E 000°08'0 0.0
2014-Aug-10 06:32N 49°28' E 000°08'0 0.0
2014-Aug-10 05:29N 49°28' E 000°08'0 0.0
2014-Aug-10 04:32N 49°28' E 000°08'0 0.0
2014-Aug-10 03:32N 49°28' E 000°08'0 0.0
2014-Aug-10 02:29N 49°28' E 000°08'0 0.0
2014-Aug-10 01:29N 49°28' E 000°08'0 0.0
2014-Aug-10 00:29N 49°28' E 000°08'0 0.0
2014-Aug-09 23:32N 49°28' E 000°08'0 0.0
2014-Aug-09 22:29N 49°28' E 000°08'0 0.0
2014-Aug-09 21:29N 49°28' E 000°08'0 0.0
2014-Aug-09 20:32N 49°28' E 000°08'0 0.0
2014-Aug-09 19:29N 49°28' E 000°08'0 0.0
2014-Aug-09 18:29N 49°28' E 000°08'0 0.0
2014-Aug-09 17:32N 49°28' E 000°08'0 0.0
2014-Aug-09 16:29N 49°28' E 000°08'0 0.0
2014-Aug-09 15:29N 49°28' E 000°08'0 0.0
2014-Aug-09 14:32N 49°28' E 000°08'0 0.0
2014-Aug-09 13:23N 49°28' E 000°08'0 0.0
2014-Aug-09 12:32N 49°28' E 000°08'0 0.0
2014-Aug-09 11:29N 49°28' E 000°08'0 0.0
2014-Aug-09 10:29N 49°28' E 000°08'0 0.0
2014-Aug-09 09:29N 49°28' E 000°08'0 0.0
2014-Aug-09 08:29N 49°28' E 000°08'0 0.0
2014-Aug-09 07:32N 49°28' E 000°08'0 0.0
2014-Aug-09 06:32N 49°28' E 000°08'0 0.0
2014-Aug-09 05:29N 49°28' E 000°08'0 0.0
2014-Aug-09 04:32N 49°28' E 000°08'0 0.0
2014-Aug-09 03:29N 49°28' E 000°08'0 0.0
2014-Aug-09 02:32N 49°28' E 000°08'0 0.0
2014-Aug-09 01:32N 49°28' E 000°08'0 0.0
2014-Aug-09 00:32N 49°28' E 000°08'0 0.0
2014-Aug-08 23:29N 49°28' E 000°08'0 0.0
2014-Aug-08 22:29N 49°28' E 000°08'0 0.0
2014-Aug-08 21:29N 49°28' E 000°08'0 0.0
2014-Aug-08 20:32N 49°28' E 000°08'0 0.0
2014-Aug-08 19:32N 49°28' E 000°08'0 0.0
2014-Aug-08 18:33N 49°28' E 000°08'5 4.8
2014-Aug-08 17:33N 49°30' E 000°01'8 7.9
2014-Aug-08 16:33N 49°32' W 000°10'4 3.6
2014-Aug-08 15:33N 49°33' W 000°16'6 6.2
2014-Aug-08 14:34N 49°37' W 000°24'1110.9
2014-Aug-08 13:33N 49°47' W 000°30'3811.6
2014-Aug-08 10:17N 50°24' W 000°17'1112.1
2014-Aug-08 09:23N 50°29' W 000°01'1011.8
2014-Aug-08 08:30N 50°31' E 000°14'1111.1
2014-Aug-08 07:33N 50°34' E 000°30'1110.9
2014-Aug-08 06:33N 50°40' E 000°45'1111.4
2014-Aug-08 05:33N 50°47' E 000°60'1312.8
2014-Aug-08 04:33N 50°54' E 001°17'1414.3
2014-Aug-08 03:33N 51°04' E 001°32'1413.6
2014-Aug-08 02:34N 51°15' E 001°46'1212.1
2014-Aug-08 01:34N 51°25' E 001°55'1111.1
2014-Aug-08 00:34N 51°33' E 002°07'1110.8
2014-Aug-07 23:33N 51°42' E 002°18'1010.4
2014-Aug-07 22:33N 51°50' E 002°29'1010.2
2014-Aug-07 21:33N 51°57' E 002°41'1111.0
2014-Aug-07 20:33N 52°04' E 002°55'1211.7
2014-Aug-07 19:33N 52°03' E 003°14'1212.2
2014-Aug-07 18:33N 52°03' E 003°34'1212.1
2014-Aug-07 17:33N 52°03' E 003°53'1110.7
2014-Aug-07 16:33N 51°57' E 004°09'1 1.0
2014-Aug-07 15:32N 51°57' E 004°10'0 0.0
2014-Aug-07 14:32N 51°57' E 004°10'0 0.0
2014-Aug-07 13:32N 51°57' E 004°10'0 0.0
2014-Aug-07 12:32N 51°57' E 004°10'0 0.0
2014-Aug-07 11:32N 51°57' E 004°10'0 0.0
2014-Aug-07 10:29N 51°57' E 004°10'0 0.0
2014-Aug-07 09:29N 51°57' E 004°10'0 0.0
2014-Aug-07 08:32N 51°57' E 004°10'0 0.0
2014-Aug-07 07:23N 51°57' E 004°10'0 0.0
2014-Aug-07 06:32N 51°57' E 004°10'0 0.0
2014-Aug-07 05:32N 51°57' E 004°10'0 0.0
2014-Aug-07 04:26N 51°57' E 004°10'0 0.0
2014-Aug-07 03:29N 51°57' E 004°10'0 0.0
2014-Aug-07 02:32N 51°57' E 004°10'0 0.0
2014-Aug-07 01:32N 51°57' E 004°10'0 0.0
2014-Aug-07 00:32N 51°57' E 004°10'0 0.0
2014-Aug-06 23:29N 51°57' E 004°10'0 0.0
2014-Aug-06 22:32N 51°57' E 004°10'0 0.0
2014-Aug-06 21:32N 51°57' E 004°10'0 0.1
2014-Aug-06 20:33N 51°57' E 004°10'6 6.2
2014-Aug-06 19:33N 51°60' E 004°01'1010.3
2014-Aug-06 18:33N 52°01' E 003°44'22 1.4
2014-Aug-06 03:10N 52°00' E 003°09'0 0.1
2014-Aug-06 01:19N 52°00' E 003°09'0 0.1
2014-Aug-06 00:13N 52°00' E 003°09'0 0.1
2014-Aug-05 23:28N 52°00' E 003°09'0 0.0
2014-Aug-05 22:28N 52°00' E 003°09'0 0.0
2014-Aug-05 21:31N 52°00' E 003°09'0 0.0
2014-Aug-05 20:25N 52°00' E 003°09'0 0.0
2014-Aug-05 19:31N 52°00' E 003°09'0 0.1
2014-Aug-05 17:19N 52°00' E 003°09'0 0.0
2014-Aug-05 16:31N 52°00' E 003°09'0 0.0
2014-Aug-05 15:31N 52°00' E 003°09'0 0.0
2014-Aug-05 14:28N 52°00' E 003°09'0 0.0
2014-Aug-05 13:16N 52°00' E 003°09'0 0.2
2014-Aug-05 12:22N 52°00' E 003°09'0 0.1
2014-Aug-05 11:16N 52°00' E 003°09'0 0.0
2014-Aug-05 10:28N 52°00' E 003°09'0 0.0
2014-Aug-05 09:31N 52°00' E 003°09'0 0.0
2014-Aug-05 08:25N 52°00' E 003°09'0 0.0
2014-Aug-05 07:31N 52°00' E 003°09'0 0.1
2014-Aug-05 05:10N 52°00' E 003°09'0 0.2
2014-Aug-05 04:10N 52°00' E 003°09'0 0.0
2014-Aug-05 03:22N 52°00' E 003°09'0 0.0
2014-Aug-05 02:22N 52°00' E 003°09'0 0.0
2014-Aug-05 00:28N 52°00' E 003°09'0 0.2
2014-Aug-04 23:31N 52°00' E 003°09'0 0.1
2014-Aug-04 22:31N 52°00' E 003°09'0 0.0
2014-Aug-04 21:31N 52°00' E 003°09'0 0.0
2014-Aug-04 20:31N 52°00' E 003°09'0 0.0
2014-Aug-04 19:31N 52°00' E 003°09'0 0.0
2014-Aug-04 18:31N 52°00' E 003°09'0 0.0
2014-Aug-04 17:28N 52°00' E 003°09'0 0.1
2014-Aug-04 15:28N 52°00' E 003°09'0 0.0
2014-Aug-04 04:19N 52°00' E 003°09'0 0.2
2014-Aug-04 03:31N 52°00' E 003°09'0 0.1
2014-Aug-04 02:04N 52°00' E 003°09'0 0.0
2014-Aug-04 01:31N 52°00' E 003°09'0 0.1
2014-Aug-04 00:10N 52°00' E 003°09'0 0.3
2014-Aug-03 23:25N 52°00' E 003°09'0 0.1
2014-Aug-03 22:31N 52°00' E 003°09'0 0.0
2014-Aug-03 21:31N 52°00' E 003°09'0 0.0
2014-Aug-03 20:31N 52°00' E 003°09'0 0.0
2014-Aug-03 19:31N 52°00' E 003°09'0 0.0
2014-Aug-03 18:31N 52°00' E 003°09'0 0.0
2014-Aug-03 17:31N 52°00' E 003°09'  

Dump ship's entire track history